createdAt,value
2019-06-27T00:01:32.259Z,97857.86
2019-06-27T00:04:03.996Z,97863.08
2019-06-27T00:06:35.411Z,97864.64
2019-06-27T00:09:09.401Z,97864.64
2019-06-27T00:11:41.078Z,97870.07
2019-06-27T00:14:12.578Z,97878.39
2019-06-27T00:16:44.396Z,97878.39
2019-06-27T00:19:17.507Z,97873.98
2019-06-27T00:21:48.889Z,97886.27
2019-06-27T00:24:20.378Z,97872.34
2019-06-27T00:26:57.321Z,97877.06
2019-06-27T00:29:25.255Z,97878.52
2019-06-27T00:31:56.532Z,97877.39
2019-06-27T00:34:28.214Z,97877.39
2019-06-27T00:37:00.264Z,97885.01
2019-06-27T00:39:31.856Z,97883.36
2019-06-27T00:42:03.365Z,97885.16
2019-06-27T00:44:35.729Z,97885.16
2019-06-27T00:47:07.235Z,97889.99
2019-06-27T00:49:39.192Z,97899.74
2019-06-27T00:52:11.093Z,97899.74
2019-06-27T00:54:42.681Z,97896.47
2019-06-27T00:57:14.952Z,97896.35
2019-06-27T00:59:49.401Z,97897.37
2019-06-27T01:02:21.134Z,97897.37
2019-06-27T01:04:52.638Z,97910.64
2019-06-27T01:07:23.958Z,97910.64
2019-06-27T01:09:55.556Z,97911.37
2019-06-27T01:12:27.365Z,97911.16
2019-06-27T01:14:58.880Z,97907.95
2019-06-27T01:17:30.393Z,97907.95
2019-06-27T01:20:02.387Z,97904.34
2019-06-27T01:22:34.987Z,97899.38
2019-06-27T01:25:07.050Z,97913.73
2019-06-27T01:27:39.472Z,97913.73
2019-06-27T01:30:11.458Z,97917.22
2019-06-27T01:32:43.004Z,97918.41
2019-06-27T01:35:14.881Z,97922.41
2019-06-27T01:37:46.836Z,97922.41
2019-06-27T01:40:18.737Z,97935.78
2019-06-27T01:42:50.628Z,97931.86
2019-06-27T01:45:28.049Z,97944.95
2019-06-27T01:47:59.845Z,97948.12
2019-06-27T01:50:31.888Z,97953.97
2019-06-27T01:53:03.702Z,97950.98
2019-06-27T01:55:34.944Z,97950.98
2019-06-27T01:58:06.637Z,97959.44
2019-06-27T02:00:38.132Z,97959.44
2019-06-27T02:03:09.860Z,97954.36
2019-06-27T02:05:41.128Z,97961.00
2019-06-27T02:08:12.769Z,97957.09
2019-06-27T02:10:44.470Z,97963.69
2019-06-27T02:13:16.376Z,97961.62
2019-06-27T02:15:48.366Z,97956.66
2019-06-27T02:18:20.325Z,97954.25
2019-06-27T02:20:52.180Z,97954.25
2019-06-27T02:23:23.860Z,97965.44
2019-06-27T02:25:55.122Z,97970.69
2019-06-27T02:28:26.572Z,97961.91
2019-06-27T02:30:57.962Z,97977.73
2019-06-27T02:33:29.603Z,97977.73
2019-06-27T02:36:01.006Z,97976.14
2019-06-27T02:38:32.321Z,97978.12
2019-06-27T02:41:04.344Z,97974.25
2019-06-27T02:43:35.835Z,97958.15
2019-06-27T02:46:07.548Z,97958.15
2019-06-27T02:48:39.183Z,97960.52
2019-06-27T02:51:11.556Z,97960.53
2019-06-27T02:53:43.111Z,97960.53
2019-06-27T02:56:14.439Z,97953.56
2019-06-27T02:58:46.012Z,97947.89
2019-06-27T03:01:17.845Z,97954.03
2019-06-27T03:03:50.691Z,97960.52
2019-06-27T03:06:22.641Z,97967.65
2019-06-27T03:08:54.194Z,97965.59
2019-06-27T03:11:25.726Z,97973.27
2019-06-27T03:13:57.422Z,97975.98
2019-06-27T03:16:30.152Z,97975.98
2019-06-27T03:19:01.712Z,97966.91
2019-06-27T03:21:33.445Z,97967.21
2019-06-27T03:24:04.721Z,97965.58
2019-06-27T03:26:36.166Z,97965.58
2019-06-27T03:29:07.536Z,97962.59
2019-06-27T03:31:39.213Z,97967.84
2019-06-27T03:34:10.747Z,97969.81
2019-06-27T03:36:42.351Z,97967.67
2019-06-27T03:39:14.109Z,97970.53
2019-06-27T03:41:45.615Z,97968.48
2019-06-27T03:44:17.146Z,97968.30
2019-06-27T03:46:49.616Z,97968.30
2019-06-27T03:49:21.065Z,97966.46
2019-06-27T03:51:52.779Z,97966.73
2019-06-27T03:54:24.324Z,97969.06
2019-06-27T03:56:56.307Z,97968.02
2019-06-27T03:59:27.881Z,97963.61
2019-06-27T04:01:59.649Z,97963.75
2019-06-27T04:04:31.074Z,97970.91
2019-06-27T04:07:02.475Z,97970.50
2019-06-27T04:09:33.860Z,97961.79
2019-06-27T04:12:05.241Z,97954.95
2019-06-27T04:14:36.674Z,97945.53
2019-06-27T04:17:08.243Z,97933.97
2019-06-27T04:19:39.877Z,97939.95
2019-06-27T04:22:11.847Z,97948.89
2019-06-27T04:24:43.430Z,97946.52
2019-06-27T04:27:15.191Z,97948.02
2019-06-27T04:29:46.610Z,97940.12
2019-06-27T04:32:18.037Z,97938.60
2019-06-27T04:34:49.743Z,97951.12
2019-06-27T04:37:21.375Z,97952.56
2019-06-27T04:39:52.715Z,97948.34
2019-06-27T04:42:24.647Z,97952.14
2019-06-27T04:44:56.194Z,97947.70
2019-06-27T04:47:27.533Z,97946.70
2019-06-27T04:49:59.000Z,97940.24
2019-06-27T04:52:30.528Z,97947.78
2019-06-27T04:55:03.901Z,97947.31
2019-06-27T04:57:35.235Z,97941.46
2019-06-27T05:00:06.776Z,97941.76
2019-06-27T05:02:39.620Z,97944.31
2019-06-27T05:05:11.767Z,97944.31
2019-06-27T05:07:43.301Z,97949.38
2019-06-27T05:10:15.123Z,97938.35
2019-06-27T05:12:46.722Z,97938.35
2019-06-27T05:15:18.216Z,97942.99
2019-06-27T05:17:49.987Z,97942.99
2019-06-27T05:20:21.920Z,97946.65
2019-06-27T05:22:55.157Z,97946.65
2019-06-27T05:25:29.562Z,97935.75
2019-06-27T05:28:02.052Z,97930.36
2019-06-27T05:30:33.671Z,97930.36
2019-06-27T05:33:05.122Z,97928.55
2019-06-27T05:35:36.687Z,97923.17
2019-06-27T05:38:08.019Z,97923.17
2019-06-27T05:40:39.516Z,97923.84
2019-06-27T05:43:11.296Z,97923.91
2019-06-27T05:45:42.707Z,97921.15
2019-06-27T05:48:16.638Z,97923.08
2019-06-27T05:50:48.181Z,97924.84
2019-06-27T05:53:20.352Z,97920.11
2019-06-27T05:55:51.937Z,97915.28
2019-06-27T05:58:23.675Z,97914.94
2019-06-27T06:00:55.432Z,97916.15
2019-06-27T06:03:27.683Z,97912.63
2019-06-27T06:05:59.201Z,97910.55
2019-06-27T06:08:30.491Z,97910.55
2019-06-27T06:11:02.261Z,97909.92
2019-06-27T06:13:34.160Z,97909.92
2019-06-27T06:16:05.709Z,97908.38
2019-06-27T06:18:38.881Z,97904.77
2019-06-27T06:21:10.557Z,97904.77
2019-06-27T06:23:42.513Z,97899.80
2019-06-27T06:26:13.858Z,97897.50
2019-06-27T06:28:45.243Z,97897.50
2019-06-27T06:31:17.670Z,97897.20
2019-06-27T06:33:49.605Z,97894.73
2019-06-27T06:36:20.805Z,97891.03
2019-06-27T06:38:57.955Z,97883.23
2019-06-27T06:41:35.054Z,97883.23
2019-06-27T06:44:22.770Z,97886.58
2019-06-27T06:47:05.222Z,97875.42
2019-06-27T06:52:36.015Z,97877.29
2019-06-27T06:55:12.443Z,97872.67
2019-06-27T06:57:45.422Z,97872.56
2019-06-27T07:00:33.645Z,97869.99
2019-06-27T07:03:05.351Z,97869.99
2019-06-27T07:05:47.377Z,97872.16
2019-06-27T07:08:31.375Z,97872.16
2019-06-27T07:11:05.837Z,97865.50
2019-06-27T07:13:42.965Z,97857.47
2019-06-27T07:16:20.246Z,97857.47
2019-06-27T07:19:11.206Z,97850.30
2019-06-27T07:21:34.764Z,97849.59
2019-06-27T07:24:06.404Z,97832.54
2019-06-27T07:26:38.188Z,97832.54
2019-06-27T07:29:09.968Z,97827.28
2019-06-27T07:31:42.164Z,97827.28
2019-06-27T07:34:13.486Z,97811.89
2019-06-27T07:36:45.184Z,97815.89
2019-06-27T07:39:16.815Z,97815.89
2019-06-27T07:41:48.495Z,97813.71
2019-06-27T07:44:21.427Z,97799.78
2019-06-27T07:46:52.964Z,97799.78
2019-06-27T07:49:24.507Z,97792.95
2019-06-27T07:51:56.233Z,97789.93
2019-06-27T07:54:28.048Z,97789.93
2019-06-27T07:56:59.571Z,97790.67
2019-06-27T07:59:31.109Z,97778.27
2019-06-27T08:02:02.820Z,97781.59
2019-06-27T08:04:34.528Z,97779.66
2019-06-27T08:07:07.833Z,97777.27
2019-06-27T08:09:40.261Z,97777.27
2019-06-27T08:12:12.598Z,97780.76
2019-06-27T08:14:44.277Z,97780.76
2019-06-27T08:17:16.486Z,97772.05
2019-06-27T08:19:49.161Z,97785.91
2019-06-27T08:22:20.869Z,97782.63
2019-06-27T08:24:53.378Z,97778.05
2019-06-27T08:27:26.674Z,97778.05
2019-06-27T08:29:59.582Z,97782.83
2019-06-27T08:32:30.907Z,97770.33
2019-06-27T08:35:02.321Z,97761.94
2019-06-27T08:37:34.423Z,97761.94
2019-06-27T08:40:06.977Z,97745.86
2019-06-27T08:42:38.790Z,97746.47
2019-06-27T08:45:11.622Z,97746.47
2019-06-27T08:47:43.079Z,97742.59
2019-06-27T08:50:15.351Z,97746.91
2019-06-27T08:52:46.980Z,97743.27
2019-06-27T08:55:18.967Z,97745.24
2019-06-27T08:57:50.293Z,97729.83
2019-06-27T09:00:22.104Z,97729.83
2019-06-27T09:02:53.447Z,97732.77
2019-06-27T09:05:24.732Z,97713.64
2019-06-27T09:07:56.440Z,97713.75
2019-06-27T09:10:27.838Z,97704.45
2019-06-27T09:12:59.939Z,97711.16
2019-06-27T09:15:31.603Z,97708.83
2019-06-27T09:18:03.443Z,97701.38
2019-06-27T09:20:34.935Z,97703.55
2019-06-27T09:23:06.543Z,97697.17
2019-06-27T09:25:38.581Z,97688.22
2019-06-27T09:28:10.422Z,97687.93
2019-06-27T09:30:42.384Z,97687.93
2019-06-27T09:33:14.230Z,97684.88
2019-06-27T09:35:45.733Z,97681.17
2019-06-27T09:38:17.121Z,97664.66
2019-06-27T09:40:48.887Z,97665.77
2019-06-27T09:43:20.614Z,97669.02
2019-06-27T09:45:52.291Z,97664.45
2019-06-27T09:48:24.241Z,97654.91
2019-06-27T09:50:56.078Z,97654.91
2019-06-27T09:53:27.937Z,97662.17
2019-06-27T09:55:59.475Z,97648.51
2019-06-27T09:58:31.936Z,97638.95
2019-06-27T10:01:06.175Z,97633.61
2019-06-27T10:03:38.151Z,97627.88
2019-06-27T10:06:09.776Z,97625.19
2019-06-27T10:08:41.593Z,97621.30
2019-06-27T10:11:13.052Z,97621.30
2019-06-27T10:13:44.737Z,97616.73
2019-06-27T10:16:16.474Z,97607.69
2019-06-27T10:18:52.203Z,97601.03
2019-06-27T10:21:25.622Z,97601.03
2019-06-27T10:24:00.596Z,97609.66
2019-06-27T10:26:32.977Z,97609.66
2019-06-27T10:29:05.831Z,97602.18
2019-06-27T10:31:37.676Z,97593.71
2019-06-27T10:34:09.489Z,97593.71
2019-06-27T10:36:41.048Z,97588.23
2019-06-27T10:39:13.140Z,97580.19
2019-06-27T10:41:45.996Z,97580.19
2019-06-27T10:44:18.624Z,97569.23
2019-06-27T10:46:50.842Z,97575.44
2019-06-27T10:49:23.562Z,97579.36
2019-06-27T10:51:55.716Z,97582.47
2019-06-27T10:54:27.629Z,97582.84
2019-06-27T10:56:59.993Z,97563.67
2019-06-27T10:59:31.702Z,97563.67
2019-06-27T11:02:05.868Z,97551.12
2019-06-27T11:04:37.742Z,97542.98
2019-06-27T11:07:09.171Z,97540.78
2019-06-27T11:09:40.832Z,97549.37
2019-06-27T11:12:12.640Z,97549.37
2019-06-27T11:14:58.238Z,97558.23
2019-06-27T11:17:18.223Z,97579.69
2019-06-27T11:19:52.567Z,97600.20
2019-06-27T11:22:23.618Z,97633.38
2019-06-27T11:24:55.741Z,97633.38
2019-06-27T11:27:29.349Z,97617.25
2019-06-27T11:30:01.542Z,97621.23
2019-06-27T11:32:33.762Z,97621.23
2019-06-27T11:35:05.512Z,97614.49
2019-06-27T11:37:37.875Z,97648.76
2019-06-27T11:40:12.400Z,97656.67
2019-06-27T11:42:43.981Z,97656.67
2019-06-27T11:45:16.399Z,97680.03
2019-06-27T11:47:48.903Z,97682.70
2019-06-27T11:50:20.822Z,97658.42
2019-06-27T11:52:52.524Z,97658.42
2019-06-27T11:55:24.496Z,97602.53
2019-06-27T11:57:57.373Z,97602.53
2019-06-27T12:00:29.480Z,97601.04
2019-06-27T12:03:01.535Z,97590.06
2019-06-27T12:05:33.226Z,97590.06
2019-06-27T12:08:05.162Z,97589.06
2019-06-27T12:10:37.626Z,97594.27
2019-06-27T12:13:10.163Z,97594.27
2019-06-27T12:15:42.516Z,97593.23
2019-06-27T12:18:14.660Z,97590.08
2019-06-27T12:20:48.759Z,97582.78
2019-06-27T12:23:21.841Z,97568.88
2019-06-27T12:25:53.767Z,97563.95
2019-06-27T12:28:26.925Z,97566.59
2019-06-27T12:30:58.593Z,97578.20
2019-06-27T12:33:30.055Z,97591.02
2019-06-27T12:36:01.724Z,97586.88
2019-06-27T12:38:33.205Z,97586.88
2019-06-27T12:41:05.644Z,97588.78
2019-06-27T12:43:36.808Z,97591.27
2019-06-27T12:46:08.293Z,97591.27
2019-06-27T12:48:40.202Z,97596.22
2019-06-27T12:51:11.650Z,97605.95
2019-06-27T12:53:43.089Z,97605.95
2019-06-27T12:56:14.711Z,97595.06
2019-06-27T12:58:47.597Z,97594.17
2019-06-27T13:01:19.909Z,97602.39
2019-06-27T13:03:51.254Z,97594.78
2019-06-27T13:06:22.551Z,97600.68
2019-06-27T13:08:54.123Z,97600.68
2019-06-27T13:11:25.987Z,97593.77
2019-06-27T13:13:57.693Z,97593.77
2019-06-27T13:16:31.122Z,97598.73
2019-06-27T13:19:02.407Z,97599.65
2019-06-27T13:21:34.197Z,97595.29
2019-06-27T13:24:05.978Z,97595.91
2019-06-27T13:26:37.688Z,97600.32
2019-06-27T13:29:09.271Z,97601.52
2019-06-27T13:31:40.961Z,97607.05
2019-06-27T13:34:13.322Z,97607.09
2019-06-27T13:36:44.889Z,97603.19
2019-06-27T13:39:18.030Z,97613.80
2019-06-27T13:41:49.801Z,97613.80
2019-06-27T13:44:22.399Z,97619.31
2019-06-27T13:46:54.050Z,97623.27
2019-06-27T13:49:26.253Z,97627.23
2019-06-27T13:51:58.044Z,97625.91
2019-06-27T13:54:29.679Z,97625.91
2019-06-27T13:57:01.206Z,97626.47
2019-06-27T13:59:33.066Z,97624.05
2019-06-27T14:02:04.715Z,97625.36
2019-06-27T14:04:36.170Z,97624.72
2019-06-27T14:07:07.594Z,97625.95
2019-06-27T14:09:52.340Z,97628.00
2019-06-27T14:12:11.724Z,97628.00
2019-06-27T14:14:58.844Z,97629.98
2019-06-27T14:17:16.134Z,97645.04
2019-06-27T14:19:50.791Z,97646.27
2019-06-27T14:22:32.973Z,97645.48
2019-06-27T14:24:54.261Z,97652.89
2019-06-27T14:27:25.617Z,97660.30
2019-06-27T14:29:57.219Z,97660.48
2019-06-27T14:32:29.672Z,97669.88
2019-06-27T14:35:14.691Z,97668.37
2019-06-27T14:37:34.245Z,97667.03
2019-06-27T14:40:05.750Z,97670.91
2019-06-27T14:42:38.217Z,97687.31
2019-06-27T14:45:09.847Z,97687.31
2019-06-27T14:47:41.180Z,97694.77
2019-06-27T14:50:13.116Z,97694.77
2019-06-27T14:52:44.781Z,97690.88
2019-06-27T14:55:16.205Z,97690.88
2019-06-27T14:57:48.402Z,97690.02
2019-06-27T15:00:20.444Z,97692.70
2019-06-27T15:02:51.709Z,97691.34
2019-06-27T15:05:32.576Z,97691.34
2019-06-27T15:07:56.298Z,97695.56
2019-06-27T15:10:27.830Z,97695.56
2019-06-27T15:12:59.225Z,97700.77
2019-06-27T15:15:30.494Z,97702.11
2019-06-27T15:18:02.115Z,97707.94
2019-06-27T15:20:33.641Z,97700.75
2019-06-27T15:23:05.019Z,97700.75
2019-06-27T15:25:36.324Z,97697.64
2019-06-27T15:28:08.031Z,97711.96
2019-06-27T15:30:40.051Z,97719.10
2019-06-27T15:33:11.401Z,97725.50
2019-06-27T15:35:51.774Z,97725.50
2019-06-27T15:38:18.662Z,97731.39
2019-06-27T15:40:50.415Z,97740.95
2019-06-27T15:43:21.656Z,97745.54
2019-06-27T15:45:53.116Z,97745.54
2019-06-27T15:48:24.817Z,97743.30
2019-06-27T15:50:56.358Z,97743.30
2019-06-27T15:53:27.897Z,97753.66
2019-06-27T15:55:59.489Z,97758.50
2019-06-27T15:58:32.054Z,97758.50
2019-06-27T16:01:03.944Z,97761.09
2019-06-27T16:03:35.799Z,97761.09
2019-06-27T16:06:09.768Z,97761.68
2019-06-27T16:08:40.381Z,97768.83
2019-06-27T16:11:12.008Z,97768.53
2019-06-27T16:13:43.484Z,97774.66
2019-06-27T16:16:14.984Z,97774.48
2019-06-27T16:18:46.542Z,97775.91
2019-06-27T16:21:17.914Z,97773.30
2019-06-27T16:23:49.408Z,97780.91
2019-06-27T16:26:20.910Z,97776.95
2019-06-27T16:28:52.390Z,97792.88
2019-06-27T16:31:24.310Z,97792.88
2019-06-27T16:33:55.984Z,97795.92
2019-06-27T16:36:28.314Z,97795.34
2019-06-27T16:38:59.744Z,97788.05
2019-06-27T16:41:31.168Z,97792.13
2019-06-27T16:44:02.794Z,97802.41
2019-06-27T16:46:34.387Z,97803.44
2019-06-27T16:49:05.966Z,97803.44
2019-06-27T16:51:38.140Z,97797.77
2019-06-27T16:54:09.946Z,97801.48
2019-06-27T16:56:41.405Z,97801.48
2019-06-27T16:59:13.257Z,97808.06
2019-06-27T17:01:45.188Z,97808.06
2019-06-27T17:04:16.533Z,97805.98
2019-06-27T17:06:48.091Z,97812.09
2019-06-27T17:09:19.805Z,97812.09
2019-06-27T17:11:51.511Z,97821.28
2019-06-27T17:27:45.149Z,97826.34
2019-06-27T18:33:31.349Z,97834.69
2019-06-27T18:36:04.379Z,97834.69
2019-06-27T18:38:35.932Z,97835.59
2019-06-27T18:41:07.509Z,97837.01
2019-06-27T18:43:39.116Z,97833.65
2019-06-27T18:46:10.721Z,97839.62
2019-06-27T18:48:42.195Z,97840.41
2019-06-27T18:51:13.762Z,97837.56
2019-06-27T18:53:45.547Z,97837.56
2019-06-27T18:56:17.699Z,97843.79
2019-06-27T18:58:49.025Z,97837.08
2019-06-27T19:01:20.373Z,97837.08
2019-06-27T19:03:51.803Z,97839.88
2019-06-27T19:06:23.732Z,97833.70
2019-06-27T19:08:55.690Z,97833.70
2019-06-27T19:11:27.221Z,97833.70
2019-06-27T19:13:58.526Z,97830.87
2019-06-27T19:16:30.053Z,97830.78
2019-06-27T19:19:03.187Z,97833.03
2019-06-27T19:21:53.473Z,97825.31
2019-06-27T19:24:32.543Z,97826.63
2019-06-27T19:27:04.385Z,97826.63
2019-06-27T19:29:35.751Z,97828.06
2019-06-27T19:32:07.256Z,97822.03
2019-06-27T19:34:38.615Z,97820.29
2019-06-27T19:37:10.300Z,97822.64
2019-06-27T19:39:42.090Z,97812.28
2019-06-27T19:42:13.683Z,97812.28
2019-06-27T19:44:45.054Z,97809.57
2019-06-27T19:47:16.661Z,97809.57
2019-06-27T19:49:47.927Z,97812.42
2019-06-27T19:52:19.214Z,97809.89
2019-06-27T19:54:50.767Z,97809.89
2019-06-27T19:57:22.999Z,97802.67
2019-06-27T19:59:54.582Z,97801.62
2019-06-27T20:02:25.950Z,97799.08
2019-06-27T20:04:57.599Z,97792.20
2019-06-27T20:07:29.618Z,97792.20
2019-06-27T20:10:01.306Z,97788.20
2019-06-27T20:12:32.569Z,97793.92
2019-06-27T20:15:04.564Z,97792.95
2019-06-27T20:17:35.952Z,97782.02
2019-06-27T20:20:07.911Z,97778.52
2019-06-27T20:22:39.196Z,97778.52
2019-06-27T20:25:10.510Z,97777.60
2019-06-27T20:27:42.059Z,97779.41
2019-06-27T20:30:13.476Z,97783.27
2019-06-27T20:32:44.932Z,97781.64
2019-06-27T20:35:16.640Z,97781.64
2019-06-27T20:37:49.073Z,97792.43
2019-06-27T20:40:21.322Z,97788.66
2019-06-27T20:42:53.265Z,97788.66
2019-06-27T20:45:25.279Z,97785.86
2019-06-27T20:47:57.050Z,97785.13
2019-06-27T20:50:28.930Z,97781.14
2019-06-27T20:53:00.431Z,97780.38
2019-06-27T20:55:31.770Z,97779.98
2019-06-27T20:58:03.056Z,97775.17
2019-06-27T21:00:35.126Z,97772.43
2019-06-27T21:03:06.766Z,97772.03
2019-06-27T21:05:39.535Z,97762.93
2019-06-27T21:08:11.534Z,97766.13
2019-06-27T21:10:43.480Z,97765.30
2019-06-27T21:13:14.983Z,97769.42
2019-06-27T21:15:50.129Z,97762.05
2019-06-27T21:18:19.505Z,97761.63
2019-06-27T21:20:50.816Z,97757.12
2019-06-27T21:23:22.266Z,97757.70
2019-06-27T21:25:54.243Z,97757.54
2019-06-27T21:28:25.805Z,97748.80
2019-06-27T21:30:57.181Z,97756.35
2019-06-27T21:33:28.470Z,97756.35
2019-06-27T21:35:59.951Z,97749.28
2019-06-27T21:38:31.782Z,97743.69
2019-06-27T21:41:03.640Z,97739.79
2019-06-27T21:43:52.569Z,97733.09
2019-06-27T21:46:23.878Z,97729.53
2019-06-27T21:48:55.206Z,97726.42
2019-06-27T21:51:27.499Z,97726.42
2019-06-27T21:53:59.019Z,97728.95
2019-06-27T21:56:30.557Z,97729.58
2019-06-27T21:59:01.818Z,97729.82
2019-06-27T22:01:33.873Z,97728.17
2019-06-27T22:04:05.220Z,97728.17
2019-06-27T22:06:36.545Z,97733.95
2019-06-27T22:09:23.518Z,97734.93
2019-06-27T22:11:42.181Z,97734.83
2019-06-27T22:14:13.575Z,97734.83
2019-06-27T22:16:45.070Z,97731.84
2019-06-27T22:19:17.472Z,97736.31
2019-06-27T22:21:49.013Z,97730.08
2019-06-27T22:24:20.499Z,97730.08
2019-06-27T22:26:52.040Z,97731.00
2019-06-27T22:29:23.325Z,97729.41
2019-06-27T22:31:55.856Z,97729.26
2019-06-27T22:34:27.254Z,97729.42
2019-06-27T22:37:04.337Z,97725.41
2019-06-27T22:39:53.812Z,97725.91
2019-06-27T22:42:42.855Z,97731.88
2019-06-27T22:45:32.430Z,97734.98
2019-06-27T22:48:15.275Z,97735.05
2019-06-27T22:50:59.746Z,97734.17
2019-06-27T22:53:34.132Z,97732.48
2019-06-27T22:56:05.921Z,97733.66
2019-06-27T22:58:37.260Z,97736.95
2019-06-27T23:01:08.657Z,97737.30
2019-06-27T23:03:40.327Z,97734.55
2019-06-27T23:06:12.018Z,97741.41
2019-06-27T23:08:43.564Z,97737.46
2019-06-27T23:11:16.233Z,97737.97
2019-06-27T23:13:48.953Z,97735.40
2019-06-27T23:16:21.407Z,97742.80
2019-06-27T23:18:52.751Z,97743.77
2019-06-27T23:21:24.031Z,97751.13
2019-06-27T23:23:55.352Z,97751.13
2019-06-27T23:26:26.830Z,97751.21
2019-06-27T23:28:58.542Z,97755.56
2019-06-27T23:31:29.973Z,97750.56
2019-06-27T23:34:01.383Z,97757.69
2019-06-27T23:36:36.687Z,97756.12
2019-06-27T23:39:08.298Z,97765.84
2019-06-27T23:41:39.974Z,97764.58
2019-06-27T23:44:11.614Z,97766.25
2019-06-27T23:46:43.575Z,97772.22
2019-06-27T23:49:15.454Z,97779.62
2019-06-27T23:51:47.069Z,97779.62
2019-06-27T23:54:18.599Z,97784.66
2019-06-27T23:56:50.236Z,97790.45
2019-06-27T23:59:21.768Z,97792.11
